Millersburg, Iowa
Current Conditions -  °F | °C
As of 3:55 PM on Thursday 27 Nov 2014 (Local Time) from KOOA Reporting Station
Clear Clear  
Wind Chill: 11°   Ceiling: Unl
Heat Index: 11°   Visibility: 10mi
Dew Point:   Wind: 0mph
Humidity: 64%   Direction: NA
Pressure: 30.47"   Gusts: NA
Location:  41.57°N, 92.16°W
Report Text: KOOA 272155Z AUTO 00000KT 10SM CLR M12/M17 A3047 RMK AO2 T11181173
Loading
Personal Weather Stations






























Interactive Weather Map New forecast layout! Learn more

10-Day Weather Forecast

Advertisements
Track Severe Weather on mobile